createdAt,value
2023-03-13T00:00:57.945Z,26.75
2023-03-13T00:03:24.632Z,24.25
2023-03-13T00:05:58.736Z,20.95
2023-03-13T00:08:28.867Z,21.98
2023-03-13T00:10:56.183Z,16.98
2023-03-13T00:13:23.032Z,27.48
2023-03-13T00:15:49.696Z,16.52
2023-03-13T00:18:16.353Z,21.10
2023-03-13T00:20:43.035Z,20.10
2023-03-13T00:23:09.678Z,18.65
2023-03-13T00:25:36.288Z,26.60
2023-03-13T00:28:03.022Z,26.13
2023-03-13T00:30:29.790Z,26.27
2023-03-13T00:32:56.547Z,18.83
2023-03-13T00:35:23.274Z,20.55
2023-03-13T00:37:49.915Z,19.27
2023-03-13T00:40:16.628Z,23.95
2023-03-13T00:42:43.230Z,21.88
2023-03-13T00:45:10.299Z,21.13
2023-03-13T00:47:36.892Z,27.90
2023-03-13T00:50:03.728Z,20.00
2023-03-13T00:52:30.422Z,18.58
2023-03-13T00:54:57.113Z,13.98
2023-03-13T00:57:23.818Z,29.67
2023-03-13T00:59:50.421Z,24.75
2023-03-13T01:02:17.164Z,15.85
2023-03-13T01:04:43.884Z,18.70
2023-03-13T01:07:10.655Z,19.95
2023-03-13T01:09:37.342Z,20.05
2023-03-13T01:12:04.226Z,26.65
2023-03-13T01:14:30.853Z,18.85
2023-03-13T01:16:57.459Z,22.67
2023-03-13T01:19:24.104Z,17.13
2023-03-13T01:21:50.735Z,27.05
2023-03-13T01:24:19.098Z,12.55
2023-03-13T01:26:45.786Z,19.77
2023-03-13T01:29:13.781Z,19.73
2023-03-13T01:31:40.565Z,20.25
2023-03-13T01:34:08.376Z,15.40
2023-03-13T01:36:37.435Z,23.27
2023-03-13T01:39:05.001Z,22.15
2023-03-13T01:41:31.828Z,16.77
2023-03-13T01:43:59.062Z,20.27
2023-03-13T01:46:28.290Z,18.45
2023-03-13T01:49:00.728Z,17.80
2023-03-13T01:51:33.272Z,16.67
2023-03-13T01:54:06.210Z,14.00
2023-03-13T01:56:52.116Z,16.50
2023-03-13T01:59:24.177Z,13.43
2023-03-13T02:01:53.152Z,14.35
2023-03-13T02:04:21.901Z,16.95
2023-03-13T02:06:52.418Z,16.90
2023-03-13T02:09:24.409Z,17.55
2023-03-13T02:12:14.541Z,24.63
2023-03-13T02:14:44.935Z,22.17
2023-03-13T02:17:12.779Z,21.55
2023-03-13T02:19:49.595Z,15.50
2023-03-13T02:22:43.848Z,21.20
2023-03-13T02:25:10.529Z,18.75
2023-03-13T02:27:37.203Z,19.33
2023-03-13T02:30:05.893Z,11.57
2023-03-13T02:32:33.140Z,19.25
2023-03-13T02:35:14.662Z,19.23
2023-03-13T02:37:44.139Z,17.30
2023-03-13T02:40:15.366Z,14.13
2023-03-13T02:42:44.911Z,17.77
2023-03-13T02:45:14.615Z,18.27
2023-03-13T02:47:41.306Z,21.55
2023-03-13T02:50:10.039Z,16.95
2023-03-13T02:52:43.269Z,21.73
2023-03-13T02:55:15.484Z,22.27
2023-03-13T02:57:42.185Z,19.45
2023-03-13T03:00:12.664Z,15.45
2023-03-13T03:02:39.532Z,17.13
2023-03-13T03:05:06.626Z,20.42
2023-03-13T03:07:33.357Z,18.70
2023-03-13T03:10:00.102Z,23.33
2023-03-13T03:12:26.779Z,15.60
2023-03-13T03:14:53.557Z,17.65
2023-03-13T03:17:20.383Z,20.92
2023-03-13T03:19:47.065Z,17.17
2023-03-13T03:22:13.659Z,20.60
2023-03-13T03:24:40.351Z,19.90
2023-03-13T03:27:07.039Z,14.50
2023-03-13T03:29:33.632Z,15.15
2023-03-13T03:32:00.359Z,13.20
2023-03-13T03:34:27.071Z,13.63
2023-03-13T03:36:53.675Z,12.63
2023-03-13T03:39:20.301Z,14.65
2023-03-13T03:41:47.018Z,14.10
2023-03-13T03:44:13.622Z,13.05
2023-03-13T03:46:40.233Z,15.23
2023-03-13T03:49:07.073Z,13.60
2023-03-13T03:51:33.725Z,12.45
2023-03-13T03:54:00.432Z,13.45
2023-03-13T03:56:27.151Z,11.20
2023-03-13T03:58:53.780Z,10.40
2023-03-13T04:01:20.474Z,14.77
2023-03-13T04:03:48.905Z,12.40
2023-03-13T04:06:15.587Z,10.25
2023-03-13T04:08:42.350Z,9.73
2023-03-13T04:11:09.196Z,11.15
2023-03-13T04:13:35.855Z,15.60
2023-03-13T04:16:08.245Z,13.88
2023-03-13T04:18:34.980Z,12.13
2023-03-13T04:21:03.156Z,11.50
2023-03-13T04:23:29.844Z,15.02
2023-03-13T04:25:56.468Z,12.35
2023-03-13T04:28:23.096Z,14.45
2023-03-13T04:30:49.774Z,10.95
2023-03-13T04:33:16.494Z,13.38
2023-03-13T04:35:44.399Z,10.93
2023-03-13T04:38:11.125Z,13.90
2023-03-13T04:40:37.803Z,11.02
2023-03-13T04:43:04.417Z,10.50
2023-03-13T04:45:31.138Z,11.18
2023-03-13T04:47:57.800Z,13.88
2023-03-13T04:50:24.457Z,10.07
2023-03-13T04:52:51.114Z,15.32
2023-03-13T04:55:17.949Z,10.07
2023-03-13T04:57:44.676Z,11.45
2023-03-13T05:00:11.753Z,11.80
2023-03-13T05:02:38.455Z,13.77
2023-03-13T05:05:05.377Z,11.70
2023-03-13T05:07:32.041Z,9.32
2023-03-13T05:09:58.694Z,11.13
2023-03-13T05:12:25.356Z,7.10
2023-03-13T05:14:52.554Z,15.02
2023-03-13T05:17:19.176Z,8.52
2023-03-13T05:19:45.778Z,9.30
2023-03-13T05:22:12.443Z,8.02
2023-03-13T05:24:41.513Z,12.75
2023-03-13T05:27:08.625Z,10.90
2023-03-13T05:29:35.279Z,10.90
2023-03-13T05:32:01.940Z,6.40
2023-03-13T05:34:28.584Z,8.07
2023-03-13T05:36:55.279Z,11.40
2023-03-13T05:39:22.053Z,9.15
2023-03-13T05:41:48.979Z,9.52
2023-03-13T05:44:15.709Z,6.40
2023-03-13T05:46:42.448Z,7.97
2023-03-13T05:49:09.220Z,10.52
2023-03-13T05:51:35.892Z,8.30
2023-03-13T05:54:02.539Z,5.60
2023-03-13T05:56:29.222Z,14.38
2023-03-13T05:58:55.861Z,5.78
2023-03-13T06:01:22.493Z,11.27
2023-03-13T06:03:49.283Z,7.50
2023-03-13T06:06:16.072Z,8.00
2023-03-13T06:08:42.719Z,9.55
2023-03-13T06:11:09.380Z,8.30
2023-03-13T06:13:36.035Z,7.50
2023-03-13T06:16:02.705Z,11.30
2023-03-13T06:18:29.474Z,9.50
2023-03-13T06:21:00.990Z,11.07
2023-03-13T06:23:28.111Z,6.25
2023-03-13T06:25:54.997Z,9.40
2023-03-13T06:28:21.825Z,11.82
2023-03-13T06:30:48.484Z,9.32
2023-03-13T06:33:15.125Z,9.20
2023-03-13T06:35:55.904Z,10.20
2023-03-13T06:38:24.994Z,9.10
2023-03-13T06:40:51.775Z,8.40
2023-03-13T06:43:19.220Z,6.38
2023-03-13T06:45:46.063Z,6.93
2023-03-13T06:48:12.687Z,9.80
2023-03-13T06:50:40.311Z,8.02
2023-03-13T06:53:07.334Z,9.27
2023-03-13T06:55:34.233Z,6.63
2023-03-13T06:58:00.887Z,6.68
2023-03-13T07:00:27.612Z,9.98
2023-03-13T07:02:54.278Z,8.73
2023-03-13T07:05:20.964Z,8.98
2023-03-13T07:07:47.620Z,9.07
2023-03-13T07:10:14.305Z,11.30
2023-03-13T07:12:40.937Z,11.15
2023-03-13T07:15:07.911Z,13.95
2023-03-13T07:17:34.842Z,9.85
2023-03-13T07:20:01.833Z,9.88
2023-03-13T07:22:28.516Z,9.82
2023-03-13T07:24:55.216Z,8.73
2023-03-13T07:27:22.833Z,9.38
2023-03-13T07:29:49.920Z,6.25
2023-03-13T07:32:17.852Z,9.90
2023-03-13T07:34:44.735Z,7.10
2023-03-13T07:37:15.172Z,5.50
2023-03-13T07:39:45.203Z,10.60
2023-03-13T07:42:12.724Z,9.05
2023-03-13T07:44:39.416Z,7.95
2023-03-13T07:47:06.984Z,5.72
2023-03-13T07:49:35.907Z,10.98
2023-03-13T07:52:02.540Z,10.65
2023-03-13T07:54:29.182Z,11.07
2023-03-13T07:56:55.803Z,9.60
2023-03-13T07:59:22.433Z,8.00
2023-03-13T08:01:49.127Z,9.95
2023-03-13T08:04:16.150Z,11.10
2023-03-13T08:06:42.915Z,11.95
2023-03-13T08:09:09.950Z,6.85
2023-03-13T08:11:40.290Z,10.25
2023-03-13T08:14:07.478Z,10.95
2023-03-13T08:16:35.711Z,9.32
2023-03-13T08:19:05.782Z,7.57
2023-03-13T08:21:35.208Z,9.57
2023-03-13T08:24:06.692Z,7.35
2023-03-13T08:26:35.010Z,7.05
2023-03-13T08:29:05.237Z,7.18
2023-03-13T08:31:42.500Z,6.00
2023-03-13T08:34:09.134Z,5.40
2023-03-13T08:36:37.181Z,7.85
2023-03-13T08:39:24.081Z,7.85
2023-03-13T08:41:50.754Z,7.25
2023-03-13T08:44:20.383Z,6.43
2023-03-13T08:46:49.005Z,9.02
2023-03-13T08:49:17.481Z,6.32
2023-03-13T08:51:44.170Z,9.68
2023-03-13T08:54:10.911Z,4.95
2023-03-13T08:56:38.029Z,6.15
2023-03-13T08:59:06.878Z,8.02
2023-03-13T09:01:35.013Z,13.13
2023-03-13T09:04:04.470Z,7.97
2023-03-13T09:06:35.786Z,6.45
2023-03-13T09:09:03.467Z,7.57
2023-03-13T09:11:30.199Z,8.18
2023-03-13T09:13:59.202Z,6.57
2023-03-13T09:16:28.955Z,9.10
2023-03-13T09:18:56.516Z,8.27
2023-03-13T09:21:25.676Z,6.35
2023-03-13T09:23:52.971Z,12.32
2023-03-13T09:26:22.971Z,5.97
2023-03-13T09:28:50.730Z,5.95
2023-03-13T09:31:20.987Z,7.32
2023-03-13T09:33:49.521Z,6.20
2023-03-13T09:36:19.268Z,8.43
2023-03-13T09:38:48.046Z,4.70
2023-03-13T09:41:17.746Z,6.68
2023-03-13T09:43:56.927Z,5.65
2023-03-13T09:46:26.551Z,5.50
2023-03-13T09:48:59.904Z,6.35
2023-03-13T09:51:30.812Z,7.25
2023-03-13T09:54:19.317Z,8.48
2023-03-13T09:56:52.366Z,6.60
2023-03-13T09:59:37.500Z,5.80
2023-03-13T10:02:13.562Z,5.43
2023-03-13T10:04:45.823Z,6.30
2023-03-13T10:07:12.719Z,6.82
2023-03-13T10:09:40.889Z,3.92
2023-03-13T10:12:24.350Z,1.77
2023-03-13T10:14:53.749Z,2.97
2023-03-13T10:17:32.540Z,3.30
2023-03-13T10:20:28.469Z,3.03
2023-03-13T10:23:19.509Z,4.43
2023-03-13T10:25:46.325Z,2.00
2023-03-13T10:28:15.745Z,2.58
2023-03-13T10:30:54.247Z,3.53
2023-03-13T10:33:26.753Z,6.32
2023-03-13T10:36:11.458Z,3.15
2023-03-13T10:38:54.559Z,1.80
2023-03-13T10:41:35.313Z,6.20
2023-03-13T10:44:08.629Z,3.60
2023-03-13T10:46:41.676Z,4.20
2023-03-13T10:49:16.903Z,4.93
2023-03-13T10:51:48.753Z,5.97
2023-03-13T10:54:23.580Z,3.38
2023-03-13T10:57:13.432Z,3.53
2023-03-13T10:59:44.115Z,6.95
2023-03-13T11:02:35.820Z,5.45
2023-03-13T11:05:22.289Z,3.65
2023-03-13T11:07:49.725Z,4.95
2023-03-13T11:10:30.934Z,5.47
2023-03-13T11:12:58.883Z,4.45
2023-03-13T11:15:29.742Z,4.38
2023-03-13T11:18:14.573Z,6.75
2023-03-13T11:20:45.245Z,4.65
2023-03-13T11:23:27.767Z,5.30
2023-03-13T11:26:12.701Z,4.05
2023-03-13T11:29:13.325Z,8.38
2023-03-13T11:31:45.185Z,4.53
2023-03-13T11:34:35.937Z,5.30
2023-03-13T11:37:08.878Z,9.48
2023-03-13T11:40:01.851Z,4.32
2023-03-13T11:42:43.346Z,4.57
2023-03-13T11:45:37.141Z,2.13
2023-03-13T11:48:27.525Z,5.22
2023-03-13T11:51:00.007Z,7.68
2023-03-13T11:53:40.529Z,4.20
2023-03-13T11:56:31.760Z,7.18
2023-03-13T11:59:07.038Z,5.68
2023-03-13T12:01:51.257Z,6.35
2023-03-13T12:04:27.181Z,6.05
2023-03-13T12:07:05.754Z,5.38
2023-03-13T12:09:45.861Z,4.38
2023-03-13T12:12:24.743Z,4.97
2023-03-13T12:14:59.829Z,6.30
2023-03-13T12:17:40.323Z,8.05
2023-03-13T12:20:40.910Z,5.60
2023-03-13T12:23:47.713Z,9.82
2023-03-13T12:26:16.892Z,6.38
2023-03-13T12:28:58.175Z,6.40
2023-03-13T12:31:36.998Z,4.03
2023-03-13T12:34:18.833Z,5.60
2023-03-13T12:37:11.306Z,11.05
2023-03-13T12:39:55.365Z,5.57
2023-03-13T12:42:51.095Z,10.80
2023-03-13T12:45:20.257Z,4.90
2023-03-13T12:48:09.428Z,6.47
2023-03-13T12:50:57.878Z,9.23
2023-03-13T12:53:55.709Z,5.10
2023-03-13T12:56:26.110Z,11.60
2023-03-13T12:59:16.053Z,7.47
2023-03-13T13:01:52.343Z,9.52
2023-03-13T13:04:32.813Z,8.10
2023-03-13T13:07:02.587Z,9.15
2023-03-13T13:09:36.191Z,8.38
2023-03-13T13:12:23.486Z,14.40
2023-03-13T13:14:50.122Z,8.05
2023-03-13T13:17:39.514Z,9.45
2023-03-13T13:20:30.369Z,8.93
2023-03-13T13:23:16.022Z,9.63
2023-03-13T13:25:42.754Z,9.40
2023-03-13T13:28:21.618Z,13.27
2023-03-13T13:30:49.953Z,9.85
2023-03-13T13:33:20.333Z,9.80
2023-03-13T13:36:03.958Z,12.35
2023-03-13T13:38:36.658Z,11.50
2023-03-13T13:41:09.274Z,11.60
2023-03-13T13:43:37.220Z,6.65
2023-03-13T13:46:05.955Z,11.27
2023-03-13T13:48:36.430Z,9.18
2023-03-13T13:51:23.727Z,9.57
2023-03-13T13:54:02.190Z,6.70
2023-03-13T13:56:28.998Z,10.93
2023-03-13T13:59:00.661Z,13.82
2023-03-13T14:03:59.093Z,11.35
2023-03-13T14:06:31.942Z,11.65
2023-03-13T14:09:12.900Z,14.07
2023-03-13T14:11:39.786Z,10.77
2023-03-13T14:14:14.798Z,12.85
2023-03-13T14:16:50.312Z,11.23
2023-03-13T14:19:24.886Z,11.27
2023-03-13T14:21:51.697Z,14.55
2023-03-13T14:24:18.508Z,16.35
2023-03-13T14:26:45.810Z,13.32
2023-03-13T14:29:20.525Z,14.25
2023-03-13T14:31:55.784Z,13.13
2023-03-13T14:34:23.202Z,15.00
2023-03-13T14:37:04.411Z,19.40
2023-03-13T14:39:45.070Z,18.08
2023-03-13T14:42:16.005Z,14.60
2023-03-13T14:44:46.574Z,16.20
2023-03-13T14:47:26.791Z,11.90
2023-03-13T14:49:59.334Z,14.15
2023-03-13T14:52:27.948Z,8.75
2023-03-13T14:55:04.448Z,14.23
2023-03-13T14:57:32.524Z,12.90
2023-03-13T15:00:22.478Z,17.50
2023-03-13T15:02:49.131Z,15.45
2023-03-13T15:05:32.974Z,20.13
2023-03-13T15:07:59.633Z,19.70
2023-03-13T15:10:36.751Z,13.60
2023-03-13T15:13:37.737Z,22.13
2023-03-13T15:16:15.767Z,14.52
2023-03-13T15:18:42.522Z,14.20
2023-03-13T15:21:16.838Z,10.05
2023-03-13T15:23:53.840Z,17.02
2023-03-13T15:26:20.465Z,13.60
2023-03-13T15:28:47.101Z,9.55
2023-03-13T15:31:14.688Z,13.82
2023-03-13T15:33:43.502Z,13.85
2023-03-13T15:36:11.119Z,14.13
2023-03-13T15:38:38.195Z,16.60
2023-03-13T15:41:05.037Z,12.77
2023-03-13T15:43:31.834Z,12.73
2023-03-13T15:45:58.613Z,14.85
2023-03-13T15:48:28.226Z,15.00
2023-03-13T15:51:01.581Z,17.08
2023-03-13T15:53:35.289Z,15.90
2023-03-13T15:56:10.079Z,14.00
2023-03-13T15:58:37.480Z,13.80
2023-03-13T16:01:04.231Z,16.75
2023-03-13T16:03:30.837Z,13.80
2023-03-13T16:05:58.016Z,14.13
2023-03-13T16:08:37.002Z,15.07
2023-03-13T16:11:04.497Z,13.65
2023-03-13T16:13:31.435Z,15.23
2023-03-13T16:15:58.582Z,20.83
2023-03-13T16:18:25.585Z,17.75
2023-03-13T16:20:53.079Z,17.52
2023-03-13T16:23:20.101Z,16.83
2023-03-13T16:25:48.490Z,19.27
2023-03-13T16:28:16.317Z,16.58
2023-03-13T16:30:47.720Z,23.00
2023-03-13T16:33:14.853Z,17.50
2023-03-13T16:35:41.894Z,19.45
2023-03-13T16:38:11.543Z,18.35
2023-03-13T16:40:38.701Z,24.10
2023-03-13T16:43:05.455Z,13.43
2023-03-13T16:45:32.089Z,20.10
2023-03-13T16:47:58.729Z,17.42
2023-03-13T16:50:36.703Z,23.83
2023-03-13T16:53:03.778Z,18.08
2023-03-13T16:55:35.975Z,18.55
2023-03-13T16:58:02.667Z,16.33
2023-03-13T17:00:30.766Z,25.55
2023-03-13T17:02:58.107Z,15.52
2023-03-13T17:05:26.369Z,25.00
2023-03-13T17:07:53.248Z,18.40
2023-03-13T17:10:31.724Z,17.60
2023-03-13T17:12:59.426Z,23.63
2023-03-13T17:15:26.928Z,21.27
2023-03-13T17:17:54.438Z,25.20
2023-03-13T17:20:27.077Z,24.67
2023-03-13T17:22:56.289Z,16.95
2023-03-13T17:25:23.695Z,19.65
2023-03-13T17:27:50.531Z,18.65
2023-03-13T17:30:24.910Z,22.83
2023-03-13T17:32:51.857Z,18.73
2023-03-13T17:35:20.057Z,23.00
2023-03-13T17:37:47.674Z,23.25
2023-03-13T17:40:20.976Z,20.75
2023-03-13T17:42:48.011Z,19.45
2023-03-13T17:45:15.131Z,23.05
2023-03-13T17:47:42.511Z,17.50
2023-03-13T17:50:19.499Z,24.38
2023-03-13T17:52:46.346Z,26.63
2023-03-13T17:55:13.629Z,21.25
2023-03-13T17:57:41.641Z,27.48
2023-03-13T18:00:30.082Z,26.65
2023-03-13T18:02:58.521Z,25.13
2023-03-13T18:05:26.367Z,22.85
2023-03-13T18:07:55.608Z,23.15
2023-03-13T18:10:27.998Z,20.83
2023-03-13T18:12:55.226Z,27.00
2023-03-13T18:15:23.608Z,30.85
2023-03-13T18:17:50.710Z,27.90
2023-03-13T18:20:24.985Z,21.65
2023-03-13T18:22:51.881Z,19.33
2023-03-13T18:25:19.401Z,24.10
2023-03-13T18:27:46.166Z,26.02
2023-03-13T18:30:21.414Z,21.52
2023-03-13T18:32:48.580Z,25.50
2023-03-13T18:35:16.836Z,25.10
2023-03-13T18:37:46.077Z,15.75
2023-03-13T18:40:25.409Z,29.38
2023-03-13T18:42:52.049Z,29.58
2023-03-13T18:45:21.465Z,27.75
2023-03-13T18:47:48.765Z,23.88
2023-03-13T18:50:27.638Z,29.13
2023-03-13T18:52:56.000Z,23.95
2023-03-13T18:55:24.402Z,28.08
2023-03-13T18:57:51.213Z,24.20
2023-03-13T19:00:18.442Z,27.10
2023-03-13T19:02:45.913Z,43.85
2023-03-13T19:05:13.457Z,28.00
2023-03-13T19:07:40.378Z,30.52
2023-03-13T19:10:21.744Z,26.52
2023-03-13T19:12:48.448Z,27.98
2023-03-13T19:15:15.220Z,32.40
2023-03-13T19:17:42.713Z,21.10
2023-03-13T19:20:16.909Z,32.88
2023-03-13T19:22:43.618Z,26.77
2023-03-13T19:25:11.844Z,30.85
2023-03-13T19:27:40.698Z,28.38
2023-03-13T19:30:18.865Z,31.45
2023-03-13T19:32:45.604Z,21.33
2023-03-13T19:35:12.812Z,27.63
2023-03-13T19:37:40.430Z,27.15
2023-03-13T19:40:14.931Z,21.73
2023-03-13T19:42:41.541Z,25.85
2023-03-13T19:45:08.624Z,26.05
2023-03-13T19:47:35.271Z,27.75
2023-03-13T19:50:02.052Z,25.67
2023-03-13T19:52:28.691Z,27.73
2023-03-13T19:54:55.785Z,31.73
2023-03-13T19:57:22.832Z,24.92
2023-03-13T19:59:49.480Z,25.25
2023-03-13T20:02:16.123Z,27.85
2023-03-13T20:04:45.773Z,25.95
2023-03-13T20:07:12.627Z,29.95
2023-03-13T20:09:39.280Z,25.08
2023-03-13T20:12:06.209Z,27.27
2023-03-13T20:14:32.870Z,27.52
2023-03-13T20:16:59.460Z,22.15
2023-03-13T20:19:29.134Z,23.45
2023-03-13T20:21:59.735Z,19.45
2023-03-13T20:24:26.504Z,23.20
2023-03-13T20:26:55.636Z,24.90
2023-03-13T20:29:22.277Z,26.08
2023-03-13T20:31:49.975Z,25.45
2023-03-13T20:34:18.259Z,21.98
2023-03-13T20:36:44.850Z,24.67
2023-03-13T20:39:11.452Z,22.48
2023-03-13T20:41:38.136Z,24.90
2023-03-13T20:44:04.939Z,29.15
2023-03-13T20:46:31.576Z,19.02
2023-03-13T20:48:59.064Z,20.52
2023-03-13T20:51:25.933Z,23.92
2023-03-13T20:53:52.512Z,21.52
2023-03-13T20:56:19.207Z,26.50
2023-03-13T20:58:45.825Z,23.50
2023-03-13T21:01:12.532Z,24.30
2023-03-13T21:03:39.395Z,17.20
2023-03-13T21:06:17.406Z,24.08
2023-03-13T21:08:45.553Z,14.60
2023-03-13T21:11:21.000Z,25.38
2023-03-13T21:13:48.488Z,25.00
2023-03-13T21:16:15.638Z,24.63
2023-03-13T21:18:42.671Z,18.17
2023-03-13T21:21:13.177Z,18.92
2023-03-13T21:23:39.898Z,21.65
2023-03-13T21:26:06.944Z,21.23
2023-03-13T21:28:33.766Z,17.00
2023-03-13T21:31:11.841Z,17.20
2023-03-13T21:33:39.641Z,22.88
2023-03-13T21:36:06.884Z,18.05
2023-03-13T21:38:34.423Z,16.67
2023-03-13T21:41:01.134Z,20.30
2023-03-13T21:43:30.514Z,21.58
2023-03-13T21:45:59.321Z,22.95
2023-03-13T21:48:26.406Z,22.27
2023-03-13T21:50:53.753Z,18.33
2023-03-13T21:53:21.022Z,15.95
2023-03-13T21:55:51.376Z,18.55
2023-03-13T21:58:18.368Z,21.23
2023-03-13T22:00:45.350Z,21.67
2023-03-13T22:03:12.044Z,25.35
2023-03-13T22:05:43.006Z,18.50
2023-03-13T22:08:11.504Z,19.03
2023-03-13T22:10:38.722Z,22.38
2023-03-13T22:13:12.891Z,23.10
2023-03-13T22:15:39.487Z,19.15
2023-03-13T22:18:06.131Z,17.42
2023-03-13T22:20:32.754Z,18.40
2023-03-13T22:22:59.352Z,18.00
2023-03-13T22:25:25.937Z,22.95
2023-03-13T22:27:52.512Z,24.70
2023-03-13T22:30:19.199Z,21.40
2023-03-13T22:32:45.881Z,19.45
2023-03-13T22:35:12.639Z,21.00
2023-03-13T22:37:39.611Z,17.95
2023-03-13T22:40:07.173Z,18.17
2023-03-13T22:42:33.917Z,14.65
2023-03-13T22:45:00.577Z,18.35
2023-03-13T22:47:27.458Z,23.35
2023-03-13T22:49:54.159Z,21.35
2023-03-13T22:52:22.124Z,21.38
2023-03-13T22:54:48.873Z,16.15
2023-03-13T22:57:15.512Z,17.75
2023-03-13T22:59:42.100Z,22.92
2023-03-13T23:02:08.728Z,17.27
2023-03-13T23:04:35.384Z,20.73
2023-03-13T23:07:01.997Z,17.95
2023-03-13T23:09:28.692Z,20.38
2023-03-13T23:11:55.358Z,19.75
2023-03-13T23:14:21.969Z,26.67
2023-03-13T23:16:48.706Z,26.88
2023-03-13T23:19:15.348Z,28.85
2023-03-13T23:21:42.046Z,18.73
2023-03-13T23:24:08.808Z,23.38
2023-03-13T23:26:35.598Z,17.95
2023-03-13T23:29:02.293Z,24.85
2023-03-13T23:31:28.947Z,21.55
2023-03-13T23:33:55.674Z,20.20
2023-03-13T23:36:22.511Z,31.30
2023-03-13T23:38:50.397Z,22.33
2023-03-13T23:41:17.346Z,23.88
2023-03-13T23:43:44.048Z,20.67
2023-03-13T23:46:16.714Z,16.05
2023-03-13T23:48:43.453Z,24.55
2023-03-13T23:51:10.243Z,23.30
2023-03-13T23:53:38.214Z,24.17
2023-03-13T23:56:05.540Z,20.35
2023-03-13T23:58:32.308Z,25.05
